createdAt,value
2023-03-11T00:00:02.839Z,286
2023-03-11T00:00:33.819Z,285
2023-03-11T00:01:04.289Z,285
2023-03-11T00:01:34.366Z,286
2023-03-11T00:02:06.245Z,286
2023-03-11T00:02:37.364Z,286
2023-03-11T00:03:08.030Z,282
2023-03-11T00:03:38.327Z,284
2023-03-11T00:04:10.179Z,285
2023-03-11T00:04:40.348Z,283
2023-03-11T00:05:13.113Z,282
2023-03-11T00:05:42.875Z,281
2023-03-11T00:06:14.115Z,283
2023-03-11T00:06:44.348Z,282
2023-03-11T00:07:16.401Z,285
2023-03-11T00:07:48.304Z,285
2023-03-11T00:08:18.864Z,286
2023-03-11T00:08:48.459Z,287
2023-03-11T00:09:20.432Z,286
2023-03-11T00:09:50.448Z,286
2023-03-11T00:10:22.685Z,284
2023-03-11T00:10:52.820Z,282
2023-03-11T00:11:25.168Z,281
2023-03-11T00:11:54.367Z,280
2023-03-11T00:12:26.155Z,279
2023-03-11T00:12:57.376Z,279
2023-03-11T00:13:28.079Z,280
2023-03-11T00:13:58.429Z,279
2023-03-11T00:14:30.109Z,280
2023-03-11T00:15:00.392Z,280
2023-03-11T00:15:32.822Z,282
2023-03-11T00:16:02.972Z,285
2023-03-11T00:16:34.152Z,284
2023-03-11T00:17:04.460Z,286
2023-03-11T00:17:36.179Z,285
2023-03-11T00:18:08.547Z,285
2023-03-11T00:18:38.371Z,285
2023-03-11T00:19:08.658Z,284
2023-03-11T00:19:40.072Z,285
2023-03-11T00:20:10.341Z,285
2023-03-11T00:20:42.589Z,286
2023-03-11T00:21:12.407Z,288
2023-03-11T00:21:44.049Z,288
2023-03-11T00:22:14.578Z,289
2023-03-11T00:22:46.348Z,289
2023-03-11T00:23:17.424Z,289
2023-03-11T00:23:48.210Z,289
2023-03-11T00:24:18.440Z,289
2023-03-11T00:24:50.038Z,288
2023-03-11T00:25:20.422Z,289
2023-03-11T00:25:52.512Z,289
2023-03-11T00:26:22.318Z,286
2023-03-11T00:26:54.049Z,287
2023-03-11T00:27:24.420Z,285
2023-03-11T00:27:56.154Z,287
2023-03-11T00:28:27.362Z,285
2023-03-11T00:28:59.175Z,284
2023-03-11T00:29:28.939Z,284
2023-03-11T00:30:00.109Z,284
2023-03-11T00:30:31.205Z,283
2023-03-11T00:31:02.227Z,284
2023-03-11T00:31:32.369Z,285
2023-03-11T00:32:04.820Z,287
2023-03-11T00:32:34.389Z,287
2023-03-11T00:33:06.317Z,289
2023-03-11T00:33:37.402Z,289
2023-03-11T00:34:08.191Z,288
2023-03-11T00:34:38.478Z,287
2023-03-11T00:35:10.561Z,287
2023-03-11T00:35:40.479Z,285
2023-03-11T00:36:12.590Z,284
2023-03-11T00:36:42.343Z,284
2023-03-11T00:37:14.358Z,283
2023-03-11T00:37:44.450Z,284
2023-03-11T00:38:16.588Z,282
2023-03-11T00:38:48.217Z,282
2023-03-11T00:39:18.916Z,281
2023-03-11T00:39:48.428Z,280
2023-03-11T00:40:20.533Z,280
2023-03-11T00:40:50.434Z,282
2023-03-11T00:41:22.361Z,280
2023-03-11T00:41:52.506Z,280
2023-03-11T00:42:25.031Z,279
2023-03-11T00:42:54.891Z,277
2023-03-11T00:43:26.188Z,276
2023-03-11T00:43:57.447Z,274
2023-03-11T00:44:28.235Z,274
2023-03-11T00:44:58.412Z,275
2023-03-11T00:45:31.900Z,277
2023-03-11T00:46:00.440Z,277
2023-03-11T00:46:32.279Z,276
2023-03-11T00:47:02.471Z,277
2023-03-11T00:47:34.139Z,276
2023-03-11T00:48:04.391Z,276
2023-03-11T00:48:36.089Z,275
2023-03-11T00:49:07.387Z,275
2023-03-11T00:49:38.475Z,274
2023-03-11T00:50:08.719Z,273
2023-03-11T00:50:40.051Z,274
2023-03-11T00:51:10.381Z,271
2023-03-11T00:51:42.071Z,270
2023-03-11T00:52:12.308Z,270
2023-03-11T00:52:44.078Z,180
2023-03-11T00:53:14.398Z,271
2023-03-11T00:53:46.331Z,273
2023-03-11T00:54:17.499Z,273
2023-03-11T00:54:48.113Z,271
2023-03-11T00:55:19.205Z,272
2023-03-11T00:55:50.318Z,180
2023-03-11T00:56:20.710Z,272
2023-03-11T00:56:52.243Z,275
2023-03-11T00:57:23.324Z,277
2023-03-11T00:57:54.273Z,277
2023-03-11T00:58:24.518Z,278
2023-03-11T00:58:56.838Z,278
2023-03-11T00:59:27.384Z,277
2023-03-11T00:59:58.356Z,278
2023-03-11T01:00:29.680Z,279
2023-03-11T01:01:00.205Z,276
2023-03-11T01:01:30.616Z,276
2023-03-11T01:02:02.132Z,277
2023-03-11T01:02:32.422Z,276
2023-03-11T01:03:04.244Z,275
2023-03-11T01:03:34.509Z,272
2023-03-11T01:04:06.039Z,274
2023-03-11T01:04:37.399Z,276
2023-03-11T01:05:08.444Z,279
2023-03-11T01:05:38.372Z,277
2023-03-11T01:06:10.106Z,278
2023-03-11T01:06:45.596Z,276
2023-03-11T01:07:12.028Z,276
2023-03-11T01:07:42.368Z,273
2023-03-11T01:08:14.072Z,275
2023-03-11T01:08:44.328Z,277
2023-03-11T01:09:16.166Z,278
2023-03-11T01:09:47.662Z,280
2023-03-11T01:10:22.070Z,282
2023-03-11T01:10:48.294Z,281
2023-03-11T01:11:20.054Z,284
2023-03-11T01:11:50.359Z,285
2023-03-11T01:12:22.626Z,286
2023-03-11T01:12:52.336Z,286
2023-03-11T01:13:24.000Z,287
2023-03-11T01:13:54.319Z,289
2023-03-11T01:14:26.080Z,288
2023-03-11T01:14:57.338Z,287
2023-03-11T01:15:28.844Z,287
2023-03-11T01:15:58.545Z,288
2023-03-11T01:16:29.999Z,288
2023-03-11T01:17:00.372Z,288
2023-03-11T01:17:32.353Z,288
2023-03-11T01:18:02.515Z,289
2023-03-11T01:18:33.485Z,288
2023-03-11T01:19:04.354Z,285
2023-03-11T01:19:36.187Z,285
2023-03-11T01:20:07.735Z,285
2023-03-11T01:20:38.755Z,282
2023-03-11T01:21:08.354Z,284
2023-03-11T01:21:40.039Z,284
2023-03-11T01:22:10.373Z,284
2023-03-11T01:22:42.074Z,284
2023-03-11T01:23:12.758Z,285
2023-03-11T01:23:44.027Z,286
2023-03-11T01:24:14.324Z,285
2023-03-11T01:24:46.698Z,284
2023-03-11T01:25:17.774Z,284
2023-03-11T01:25:48.332Z,286
2023-03-11T01:26:18.356Z,284
2023-03-11T01:26:50.036Z,283
2023-03-11T01:27:20.342Z,282
2023-03-11T01:27:52.337Z,281
2023-03-11T01:28:22.395Z,282
2023-03-11T01:28:54.101Z,282
2023-03-11T01:29:24.352Z,283
2023-03-11T01:29:56.066Z,284
2023-03-11T01:30:28.153Z,284
2023-03-11T01:30:58.463Z,285
2023-03-11T01:31:28.664Z,283
2023-03-11T01:32:00.052Z,282
2023-03-11T01:32:30.389Z,281
2023-03-11T01:33:02.930Z,281
2023-03-11T01:33:32.357Z,283
2023-03-11T01:34:04.230Z,283
2023-03-11T01:34:34.421Z,284
2023-03-11T01:35:07.516Z,285
2023-03-11T01:35:37.389Z,284
2023-03-11T01:36:08.142Z,282
2023-03-11T01:36:38.820Z,283
2023-03-11T01:37:10.038Z,285
2023-03-11T01:37:40.350Z,286
2023-03-11T01:38:14.067Z,286
2023-03-11T01:38:42.367Z,283
2023-03-11T01:39:13.331Z,284
2023-03-11T01:39:45.054Z,284
2023-03-11T01:40:15.809Z,282
2023-03-11T01:40:48.368Z,283
2023-03-11T01:41:18.537Z,283
2023-03-11T01:41:49.040Z,285
2023-03-11T01:42:19.298Z,283
2023-03-11T01:42:52.068Z,284
2023-03-11T01:43:21.894Z,284
2023-03-11T01:43:53.017Z,281
2023-03-11T01:44:23.280Z,279
2023-03-11T01:44:55.248Z,278
2023-03-11T01:45:26.094Z,277
2023-03-11T01:45:58.164Z,277
2023-03-11T01:46:27.500Z,274
2023-03-11T01:46:59.144Z,275
2023-03-11T01:47:29.317Z,275
2023-03-11T01:48:01.139Z,276
2023-03-11T01:48:31.883Z,276
2023-03-11T01:49:03.044Z,278
2023-03-11T01:49:33.328Z,276
2023-03-11T01:50:05.577Z,277
2023-03-11T01:50:35.310Z,279
2023-03-11T01:51:08.070Z,278
2023-03-11T01:51:37.690Z,275
2023-03-11T01:52:09.248Z,275
2023-03-11T01:52:39.300Z,275
2023-03-11T01:53:11.013Z,273
2023-03-11T01:53:41.321Z,273
2023-03-11T01:54:13.012Z,275
2023-03-11T01:54:43.355Z,276
2023-03-11T01:55:15.624Z,276
2023-03-11T01:55:45.307Z,276
2023-03-11T01:56:18.003Z,279
2023-03-11T01:56:47.969Z,279
2023-03-11T01:57:19.098Z,278
2023-03-11T01:57:49.354Z,278
2023-03-11T01:58:21.029Z,277
2023-03-11T01:58:51.319Z,275
2023-03-11T01:59:23.474Z,273
2023-03-11T01:59:53.338Z,275
2023-03-11T02:00:26.978Z,276
2023-03-11T02:00:55.373Z,275
2023-03-11T02:01:28.093Z,276
2023-03-11T02:01:57.678Z,280
2023-03-11T02:02:29.112Z,279
2023-03-11T02:02:59.529Z,282
2023-03-11T02:03:30.992Z,282
2023-03-11T02:04:01.333Z,281
2023-03-11T02:04:32.997Z,282
2023-03-11T02:05:03.870Z,284
2023-03-11T02:05:34.998Z,286
2023-03-11T02:06:05.390Z,286
2023-03-11T02:06:38.011Z,286
2023-03-11T02:07:07.900Z,288
2023-03-11T02:07:39.015Z,287
2023-03-11T02:08:09.358Z,288
2023-03-11T02:08:41.058Z,290
2023-03-11T02:09:11.435Z,291
2023-03-11T02:09:43.015Z,294
2023-03-11T02:10:14.424Z,295
2023-03-11T02:10:45.042Z,297
2023-03-11T02:11:15.398Z,296
2023-03-11T02:11:48.359Z,296
2023-03-11T02:12:20.146Z,292
2023-03-11T02:12:49.482Z,293
2023-03-11T02:13:19.351Z,292
2023-03-11T02:13:51.010Z,294
2023-03-11T02:14:21.290Z,295
2023-03-11T02:14:53.027Z,296
2023-03-11T02:15:24.353Z,296
2023-03-11T02:15:55.129Z,295
2023-03-11T02:16:25.512Z,295
2023-03-11T02:16:58.051Z,295
2023-03-11T02:17:27.356Z,294
2023-03-11T02:17:59.000Z,294
2023-03-11T02:18:29.332Z,292
2023-03-11T02:19:00.338Z,291
2023-03-11T02:19:31.286Z,290
2023-03-11T02:20:03.471Z,288
2023-03-11T02:20:36.137Z,287
2023-03-11T02:21:05.065Z,286
2023-03-11T02:21:35.310Z,287
2023-03-11T02:22:08.571Z,288
2023-03-11T02:22:37.787Z,290
2023-03-11T02:23:09.218Z,290
2023-03-11T02:23:39.822Z,289
2023-03-11T02:24:11.058Z,289
2023-03-11T02:24:41.318Z,287
2023-03-11T02:25:13.709Z,284
2023-03-11T02:25:43.612Z,283
2023-03-11T02:26:15.817Z,281
2023-03-11T02:26:45.395Z,281
2023-03-11T02:27:18.020Z,281
2023-03-11T02:27:47.342Z,282
2023-03-11T02:28:19.064Z,282
2023-03-11T02:28:49.347Z,281
2023-03-11T02:29:21.066Z,282
2023-03-11T02:29:51.317Z,283
2023-03-11T02:30:24.146Z,284
2023-03-11T02:30:53.379Z,284
2023-03-11T02:31:25.119Z,283
2023-03-11T02:31:55.384Z,280
2023-03-11T02:32:28.117Z,279
2023-03-11T02:32:58.864Z,279
2023-03-11T02:33:29.057Z,280
2023-03-11T02:33:59.318Z,282
2023-03-11T02:34:31.014Z,282
2023-03-11T02:35:01.615Z,284
2023-03-11T02:35:33.926Z,285
2023-03-11T02:36:03.667Z,286
2023-03-11T02:36:35.041Z,288
2023-03-11T02:37:05.899Z,287
2023-03-11T02:37:37.973Z,287
2023-03-11T02:38:07.281Z,286
2023-03-11T02:38:39.146Z,287
2023-03-11T02:39:09.746Z,288
2023-03-11T02:39:41.545Z,287
2023-03-11T02:40:11.775Z,287
2023-03-11T02:40:45.844Z,287
2023-03-11T02:41:13.395Z,287
2023-03-11T02:41:45.017Z,287
2023-03-11T02:42:15.375Z,288
2023-03-11T02:42:48.113Z,290
2023-03-11T02:43:18.572Z,290
2023-03-11T02:43:49.147Z,287
2023-03-11T02:44:19.422Z,287
2023-03-11T02:44:51.015Z,287
2023-03-11T02:45:22.124Z,286
2023-03-11T02:45:53.040Z,285
2023-03-11T02:46:23.349Z,286
2023-03-11T02:46:55.079Z,286
2023-03-11T02:47:25.296Z,285
2023-03-11T02:47:58.003Z,284
2023-03-11T02:48:27.293Z,283
2023-03-11T02:48:58.988Z,285
2023-03-11T02:49:29.354Z,286
2023-03-11T02:50:01.623Z,288
2023-03-11T02:50:32.026Z,286
2023-03-11T02:51:03.050Z,284
2023-03-11T02:51:33.300Z,285
2023-03-11T02:52:05.016Z,286
2023-03-11T02:52:35.497Z,288
2023-03-11T02:53:08.183Z,284
2023-03-11T02:53:37.601Z,284
2023-03-11T02:54:08.966Z,284
2023-03-11T02:54:39.409Z,284
2023-03-11T02:55:11.555Z,283
2023-03-11T02:55:41.276Z,284
2023-03-11T02:56:13.015Z,283
2023-03-11T02:56:43.318Z,280
2023-03-11T02:57:15.107Z,280
2023-03-11T02:57:45.366Z,280
2023-03-11T02:58:18.003Z,283
2023-03-11T02:58:47.364Z,282
2023-03-11T02:59:19.000Z,279
2023-03-11T02:59:49.347Z,279
2023-03-11T03:00:23.340Z,279
2023-03-11T03:00:52.311Z,281
2023-03-11T03:01:23.179Z,283
2023-03-11T03:01:53.326Z,282
2023-03-11T03:02:25.091Z,280
2023-03-11T03:02:55.354Z,280
2023-03-11T03:03:28.210Z,282
2023-03-11T03:03:58.497Z,285
2023-03-11T03:04:29.076Z,285
2023-03-11T03:04:59.816Z,283
2023-03-11T03:05:31.428Z,285
2023-03-11T03:06:01.705Z,286
2023-03-11T03:06:33.749Z,286
2023-03-11T03:07:03.424Z,289
2023-03-11T03:07:34.978Z,287
2023-03-11T03:08:05.290Z,289
2023-03-11T03:08:38.037Z,289
2023-03-11T03:09:07.345Z,290
2023-03-11T03:09:39.020Z,291
2023-03-11T03:10:09.740Z,291
2023-03-11T03:10:41.265Z,291
2023-03-11T03:11:11.270Z,291
2023-03-11T03:11:43.107Z,290
2023-03-11T03:12:13.499Z,290
2023-03-11T03:12:45.021Z,290
2023-03-11T03:13:15.331Z,286
2023-03-11T03:13:48.006Z,284
2023-03-11T03:14:19.224Z,282
2023-03-11T03:14:48.969Z,283
2023-03-11T03:15:20.055Z,284
2023-03-11T03:15:51.060Z,284
2023-03-11T03:16:21.395Z,281
2023-03-11T03:16:53.180Z,282
2023-03-11T03:17:23.833Z,280
2023-03-11T03:17:54.989Z,281
2023-03-11T03:18:25.311Z,281
2023-03-11T03:18:57.277Z,279
2023-03-11T03:19:27.303Z,279
2023-03-11T03:19:59.043Z,278
2023-03-11T03:20:37.484Z,278
2023-03-11T03:21:01.141Z,278
2023-03-11T03:21:31.313Z,277
2023-03-11T03:22:03.013Z,276
2023-03-11T03:22:33.267Z,276
2023-03-11T03:23:05.050Z,276
2023-03-11T03:23:35.374Z,277
2023-03-11T03:24:08.498Z,279
2023-03-11T03:24:37.742Z,278
2023-03-11T03:25:09.479Z,278
2023-03-11T03:25:39.334Z,276
2023-03-11T03:26:11.112Z,276
2023-03-11T03:26:41.335Z,278
2023-03-11T03:27:12.969Z,279
2023-03-11T03:27:43.294Z,280
2023-03-11T03:28:15.468Z,281
2023-03-11T03:28:45.361Z,280
2023-03-11T03:29:18.585Z,280
2023-03-11T03:29:47.273Z,281
2023-03-11T03:30:19.915Z,280
2023-03-11T03:30:49.840Z,280
2023-03-11T03:31:21.254Z,277
2023-03-11T03:31:51.375Z,275
2023-03-11T03:32:23.069Z,276
2023-03-11T03:32:53.309Z,277
2023-03-11T03:33:25.074Z,277
2023-03-11T03:33:55.316Z,280
2023-03-11T03:34:27.985Z,280
2023-03-11T03:34:57.779Z,282
2023-03-11T03:35:29.536Z,281
2023-03-11T03:35:59.427Z,284
2023-03-11T03:36:31.083Z,285
2023-03-11T03:37:01.294Z,283
2023-03-11T03:37:33.359Z,280
2023-03-11T03:38:03.563Z,278
2023-03-11T03:38:35.080Z,276
2023-03-11T03:39:05.299Z,276
2023-03-11T03:39:37.977Z,276
2023-03-11T03:40:07.779Z,274
2023-03-11T03:40:39.190Z,276
2023-03-11T03:41:09.293Z,277
2023-03-11T03:41:40.980Z,278
2023-03-11T03:42:11.307Z,279
2023-03-11T03:42:42.980Z,278
2023-03-11T03:43:13.272Z,278
2023-03-11T03:43:45.004Z,277
2023-03-11T03:44:16.092Z,274
2023-03-11T03:44:47.982Z,274
2023-03-11T03:45:19.404Z,273
2023-03-11T03:45:49.059Z,273
2023-03-11T03:46:19.424Z,180
2023-03-11T03:46:50.993Z,180
2023-03-11T03:47:21.325Z,270
2023-03-11T03:47:52.995Z,180
2023-03-11T03:48:23.348Z,180
2023-03-11T03:48:54.982Z,180
2023-03-11T03:49:25.382Z,180
2023-03-11T03:49:58.018Z,180
2023-03-11T03:50:27.762Z,271
2023-03-11T03:50:59.271Z,270
2023-03-11T03:51:29.751Z,180
2023-03-11T03:52:01.541Z,180
2023-03-11T03:52:31.283Z,271
2023-03-11T03:53:02.986Z,272
2023-03-11T03:53:33.340Z,274
2023-03-11T03:54:05.005Z,274
2023-03-11T03:54:35.277Z,274
2023-03-11T03:55:08.449Z,275
2023-03-11T03:55:37.638Z,275
2023-03-11T03:56:09.120Z,272
2023-03-11T03:56:39.348Z,270
2023-03-11T03:57:10.995Z,270
2023-03-11T03:57:41.764Z,180
2023-03-11T03:58:13.068Z,271
2023-03-11T03:58:43.287Z,273
2023-03-11T03:59:15.038Z,274
2023-03-11T03:59:45.685Z,276
2023-03-11T04:00:19.972Z,277
2023-03-11T04:00:47.693Z,275
2023-03-11T04:01:19.030Z,275
2023-03-11T04:01:49.380Z,275
2023-03-11T04:02:21.097Z,274
2023-03-11T04:02:51.359Z,273
2023-03-11T04:03:23.102Z,272
2023-03-11T04:03:53.436Z,180
2023-03-11T04:04:25.394Z,270
2023-03-11T04:04:55.331Z,272
2023-03-11T04:05:29.737Z,273
2023-03-11T04:05:57.778Z,275
2023-03-11T04:06:28.360Z,278
2023-03-11T04:07:00.211Z,282
2023-03-11T04:07:30.426Z,283
2023-03-11T04:08:02.128Z,286
2023-03-11T04:08:32.422Z,285
2023-03-11T04:09:04.162Z,285
2023-03-11T04:09:34.443Z,284
2023-03-11T04:10:06.704Z,280
2023-03-11T04:10:37.335Z,280
2023-03-11T04:11:08.385Z,281
2023-03-11T04:11:38.352Z,282
2023-03-11T04:12:10.049Z,281
2023-03-11T04:12:40.457Z,280
2023-03-11T04:13:12.098Z,280
2023-03-11T04:13:42.480Z,281
2023-03-11T04:14:15.025Z,281
2023-03-11T04:14:44.401Z,280
2023-03-11T04:15:17.049Z,280
2023-03-11T04:15:47.459Z,281
2023-03-11T04:16:18.896Z,280
2023-03-11T04:16:48.508Z,280
2023-03-11T04:17:20.030Z,278
2023-03-11T04:17:50.939Z,276
2023-03-11T04:18:22.235Z,274
2023-03-11T04:18:52.386Z,273
2023-03-11T04:19:23.372Z,273
2023-03-11T04:19:55.160Z,274
2023-03-11T04:20:25.885Z,276
2023-03-11T04:20:58.100Z,273
2023-03-11T04:21:27.436Z,271
2023-03-11T04:21:59.037Z,271
2023-03-11T04:22:29.355Z,276
2023-03-11T04:23:01.114Z,276
2023-03-11T04:23:31.382Z,276
2023-03-11T04:24:03.007Z,275
2023-03-11T04:24:33.968Z,275
2023-03-11T04:25:06.117Z,275
2023-03-11T04:25:35.751Z,275
2023-03-11T04:26:08.105Z,273
2023-03-11T04:26:38.090Z,274
2023-03-11T04:27:09.022Z,271
2023-03-11T04:27:39.277Z,272
2023-03-11T04:28:11.017Z,274
2023-03-11T04:28:41.525Z,276
2023-03-11T04:29:12.965Z,276
2023-03-11T04:29:43.312Z,276
2023-03-11T04:30:15.902Z,275
2023-03-11T04:30:45.451Z,275
2023-03-11T04:31:18.067Z,275
2023-03-11T04:31:47.382Z,279
2023-03-11T04:32:19.040Z,277
2023-03-11T04:32:49.367Z,274
2023-03-11T04:33:20.987Z,273
2023-03-11T04:33:51.300Z,274
2023-03-11T04:34:22.993Z,274
2023-03-11T04:34:53.320Z,274
2023-03-11T04:35:25.474Z,273
2023-03-11T04:35:55.307Z,273
2023-03-11T04:36:28.017Z,272
2023-03-11T04:36:57.583Z,271
2023-03-11T04:37:29.091Z,273
2023-03-11T04:37:59.872Z,272
2023-03-11T04:38:30.971Z,270
2023-03-11T04:39:02.003Z,180
2023-03-11T04:39:33.000Z,180
2023-03-11T04:40:03.381Z,180
2023-03-11T04:40:38.294Z,180
2023-03-11T04:41:05.291Z,180
2023-03-11T04:41:38.149Z,180
2023-03-11T04:42:07.940Z,180
2023-03-11T04:42:39.011Z,180
2023-03-11T04:43:09.274Z,180
2023-03-11T04:43:42.115Z,180
2023-03-11T04:44:11.328Z,180
2023-03-11T04:44:43.464Z,270
2023-03-11T04:45:14.485Z,180
2023-03-11T04:45:45.023Z,272
2023-03-11T04:46:15.344Z,273
2023-03-11T04:46:47.994Z,275
2023-03-11T04:47:18.999Z,272
2023-03-11T04:47:49.259Z,271
2023-03-11T04:48:19.513Z,271
2023-03-11T04:48:51.016Z,271
2023-03-11T04:49:21.281Z,271
2023-03-11T04:49:53.096Z,271
2023-03-11T04:50:23.713Z,180
2023-03-11T04:50:55.003Z,180
2023-03-11T04:51:25.875Z,271
2023-03-11T04:51:58.161Z,180
2023-03-11T04:52:27.329Z,180
2023-03-11T04:52:58.950Z,180
2023-03-11T04:53:29.273Z,270
2023-03-11T04:54:01.374Z,270
2023-03-11T04:54:31.292Z,272
2023-03-11T04:55:03.005Z,271
2023-03-11T04:55:34.014Z,273
2023-03-11T04:56:04.979Z,272
2023-03-11T04:56:35.423Z,272
2023-03-11T04:57:08.021Z,271
2023-03-11T04:57:37.635Z,272
2023-03-11T04:58:09.721Z,273
2023-03-11T04:58:39.277Z,272
2023-03-11T04:59:10.978Z,272
2023-03-11T04:59:41.256Z,272
2023-03-11T05:00:14.399Z,272
2023-03-11T05:00:49.525Z,273
2023-03-11T05:01:16.956Z,274
2023-03-11T05:01:45.411Z,272
2023-03-11T05:02:18.022Z,274
2023-03-11T05:02:47.373Z,274
2023-03-11T05:03:19.102Z,273
2023-03-11T05:03:49.305Z,272
2023-03-11T05:04:21.162Z,271
2023-03-11T05:04:51.892Z,271
2023-03-11T05:05:23.521Z,271
2023-03-11T05:05:53.366Z,180
2023-03-11T05:06:25.197Z,271
2023-03-11T05:06:55.358Z,271
2023-03-11T05:07:28.588Z,272
2023-03-11T05:07:57.569Z,273
2023-03-11T05:08:28.992Z,274
2023-03-11T05:08:59.485Z,276
2023-03-11T05:09:31.973Z,277
2023-03-11T05:10:01.693Z,277
2023-03-11T05:10:33.505Z,277
2023-03-11T05:11:03.355Z,278
2023-03-11T05:11:35.993Z,276
2023-03-11T05:12:05.258Z,276
2023-03-11T05:12:38.080Z,277
2023-03-11T05:13:07.342Z,275
2023-03-11T05:13:39.004Z,276
2023-03-11T05:14:09.245Z,275
2023-03-11T05:14:40.963Z,274
2023-03-11T05:15:12.230Z,275
2023-03-11T05:15:43.058Z,275
2023-03-11T05:16:13.286Z,274
2023-03-11T05:16:45.054Z,274
2023-03-11T05:17:15.351Z,272
2023-03-11T05:17:48.007Z,271
2023-03-11T05:18:18.938Z,180
2023-03-11T05:18:48.297Z,180
2023-03-11T05:19:19.246Z,180
2023-03-11T05:19:51.040Z,180
2023-03-11T05:20:21.789Z,180
2023-03-11T05:20:53.085Z,180
2023-03-11T05:21:23.273Z,180
2023-03-11T05:21:55.015Z,180
2023-03-11T05:22:25.577Z,180
2023-03-11T05:22:58.261Z,270
2023-03-11T05:23:27.300Z,274
2023-03-11T05:23:59.012Z,276
2023-03-11T05:24:29.469Z,277
2023-03-11T05:25:02.264Z,280
2023-03-11T05:25:31.729Z,278
2023-03-11T05:26:06.687Z,278
2023-03-11T05:26:33.346Z,278
2023-03-11T05:27:04.558Z,277
2023-03-11T05:27:37.963Z,279
2023-03-11T05:28:07.445Z,280
2023-03-11T05:28:38.423Z,281
2023-03-11T05:29:08.720Z,282
2023-03-11T05:29:40.162Z,283
2023-03-11T05:30:12.325Z,282
2023-03-11T05:30:42.178Z,282
2023-03-11T05:31:12.537Z,285
2023-03-11T05:31:44.746Z,286
2023-03-11T05:32:14.461Z,287
2023-03-11T05:32:46.208Z,287
2023-03-11T05:33:17.549Z,286
2023-03-11T05:33:48.192Z,285
2023-03-11T05:34:18.482Z,285
2023-03-11T05:34:50.257Z,286
2023-03-11T05:35:20.898Z,287
2023-03-11T05:35:52.341Z,287
2023-03-11T05:36:22.441Z,289
2023-03-11T05:36:54.125Z,290
2023-03-11T05:37:24.424Z,287
2023-03-11T05:37:56.150Z,289
2023-03-11T05:38:27.744Z,289
2023-03-11T05:38:59.464Z,290
2023-03-11T05:39:28.424Z,290
2023-03-11T05:40:00.172Z,290
2023-03-11T05:40:38.124Z,290
2023-03-11T05:41:02.143Z,290
2023-03-11T05:41:32.459Z,289
2023-03-11T05:42:04.327Z,291
2023-03-11T05:42:34.724Z,291
2023-03-11T05:43:06.168Z,289
2023-03-11T05:43:37.451Z,287
2023-03-11T05:44:08.241Z,285
2023-03-11T05:44:38.399Z,283
2023-03-11T05:45:11.664Z,282
2023-03-11T05:45:40.418Z,279
2023-03-11T05:46:12.327Z,279
2023-03-11T05:46:42.558Z,280
2023-03-11T05:47:14.166Z,279
2023-03-11T05:47:44.425Z,282
2023-03-11T05:48:16.195Z,280
2023-03-11T05:48:47.505Z,280
2023-03-11T05:49:18.921Z,280
2023-03-11T05:49:48.414Z,280
2023-03-11T05:50:20.650Z,280
2023-03-11T05:50:50.418Z,282
2023-03-11T05:51:22.761Z,281
2023-03-11T05:51:53.094Z,281
2023-03-11T05:52:24.133Z,281
2023-03-11T05:52:54.882Z,283
2023-03-11T05:53:26.162Z,283
2023-03-11T05:53:57.365Z,284
2023-03-11T05:54:29.389Z,286
2023-03-11T05:54:58.369Z,285
2023-03-11T05:55:30.587Z,286
2023-03-11T05:56:00.903Z,287
2023-03-11T05:56:32.146Z,286
2023-03-11T05:57:02.438Z,286
2023-03-11T05:57:34.202Z,286
2023-03-11T05:58:04.513Z,288
2023-03-11T05:58:36.754Z,290
2023-03-11T05:59:07.495Z,288
2023-03-11T05:59:38.378Z,287
2023-03-11T06:00:09.312Z,286
2023-03-11T06:00:47.079Z,286
2023-03-11T06:01:10.423Z,285
2023-03-11T06:01:42.207Z,286
2023-03-11T06:02:12.443Z,286
2023-03-11T06:02:44.136Z,284
2023-03-11T06:03:14.422Z,282
2023-03-11T06:03:46.334Z,283
2023-03-11T06:04:17.622Z,283
2023-03-11T06:04:48.302Z,281
2023-03-11T06:05:19.433Z,281
2023-03-11T06:05:51.149Z,279
2023-03-11T06:06:20.570Z,280
2023-03-11T06:06:52.152Z,281
2023-03-11T06:07:22.524Z,279
2023-03-11T06:07:54.141Z,278
2023-03-11T06:08:24.422Z,277
2023-03-11T06:08:57.104Z,274
2023-03-11T06:09:27.472Z,275
2023-03-11T06:09:58.403Z,276
2023-03-11T06:10:28.903Z,276
2023-03-11T06:11:00.134Z,275
2023-03-11T06:11:30.451Z,276
2023-03-11T06:12:02.842Z,277
2023-03-11T06:12:32.366Z,275
2023-03-11T06:13:04.206Z,276
2023-03-11T06:13:34.416Z,275
2023-03-11T06:14:06.088Z,274
2023-03-11T06:14:37.571Z,277
2023-03-11T06:15:09.084Z,277
2023-03-11T06:15:38.450Z,277
2023-03-11T06:16:10.659Z,279
2023-03-11T06:16:40.550Z,278
2023-03-11T06:17:12.081Z,277
2023-03-11T06:17:42.604Z,277
2023-03-11T06:18:14.390Z,276
2023-03-11T06:18:45.194Z,274
2023-03-11T06:19:15.378Z,274
2023-03-11T06:19:47.365Z,273
2023-03-11T06:20:20.324Z,273
2023-03-11T06:20:48.428Z,180
2023-03-11T06:21:20.119Z,271
2023-03-11T06:21:50.392Z,272
2023-03-11T06:22:22.138Z,180
2023-03-11T06:22:53.088Z,270
2023-03-11T06:23:24.101Z,180
2023-03-11T06:23:54.404Z,272
2023-03-11T06:24:26.148Z,272
2023-03-11T06:24:57.456Z,271
2023-03-11T06:25:29.245Z,270
2023-03-11T06:25:58.382Z,272
2023-03-11T06:26:30.114Z,272
2023-03-11T06:27:00.446Z,273
2023-03-11T06:27:32.133Z,273
2023-03-11T06:28:02.419Z,273
2023-03-11T06:28:34.272Z,275
2023-03-11T06:29:04.712Z,277
2023-03-11T06:29:36.201Z,278
2023-03-11T06:30:08.267Z,278
2023-03-11T06:30:38.473Z,279
2023-03-11T06:31:08.487Z,281
2023-03-11T06:31:41.263Z,282
2023-03-11T06:32:10.404Z,280
2023-03-11T06:32:42.140Z,282
2023-03-11T06:33:12.433Z,281
2023-03-11T06:33:44.072Z,282
2023-03-11T06:34:14.596Z,281
2023-03-11T06:34:46.059Z,282
2023-03-11T06:35:17.903Z,282
2023-03-11T06:35:48.269Z,283
2023-03-11T06:36:19.028Z,282
2023-03-11T06:36:50.114Z,283
2023-03-11T06:37:20.370Z,283
2023-03-11T06:37:52.109Z,282
2023-03-11T06:38:22.446Z,283
2023-03-11T06:38:54.477Z,282
2023-03-11T06:39:24.461Z,282
2023-03-11T06:39:56.203Z,281
2023-03-11T06:40:36.228Z,281
2023-03-11T06:40:58.432Z,282
2023-03-11T06:41:28.415Z,283
2023-03-11T06:42:00.051Z,282
2023-03-11T06:42:30.382Z,284
2023-03-11T06:43:02.339Z,284
2023-03-11T06:43:32.411Z,284
2023-03-11T06:44:05.231Z,285
2023-03-11T06:44:34.384Z,287
2023-03-11T06:45:06.611Z,288
2023-03-11T06:45:38.979Z,289
2023-03-11T06:46:08.316Z,289
2023-03-11T06:46:38.433Z,287
2023-03-11T06:47:10.126Z,286
2023-03-11T06:47:40.433Z,284
2023-03-11T06:48:12.503Z,287
2023-03-11T06:48:42.431Z,286
2023-03-11T06:49:14.161Z,289
2023-03-11T06:49:44.954Z,291
2023-03-11T06:50:16.617Z,292
2023-03-11T06:50:48.488Z,294
2023-03-11T06:51:19.521Z,293
2023-03-11T06:51:48.417Z,294
2023-03-11T06:52:20.469Z,293
2023-03-11T06:52:50.434Z,292
2023-03-11T06:53:22.171Z,294
2023-03-11T06:53:52.485Z,296
2023-03-11T06:54:24.152Z,295
2023-03-11T06:54:54.329Z,294
2023-03-11T06:55:26.620Z,292
2023-03-11T06:55:57.413Z,289
2023-03-11T06:56:28.215Z,288
2023-03-11T06:56:58.454Z,288
2023-03-11T06:57:30.196Z,289
2023-03-11T06:58:00.423Z,291
2023-03-11T06:58:32.271Z,288
2023-03-11T06:59:02.418Z,289
2023-03-11T06:59:34.172Z,286
2023-03-11T07:00:04.566Z,286
2023-03-11T07:00:48.394Z,286
2023-03-11T07:01:07.544Z,286
2023-03-11T07:01:38.591Z,286
2023-03-11T07:02:08.630Z,286
2023-03-11T07:02:40.096Z,287
2023-03-11T07:03:10.960Z,286
2023-03-11T07:03:42.136Z,283
2023-03-11T07:04:12.493Z,281
2023-03-11T07:04:44.182Z,281
2023-03-11T07:05:14.855Z,283
2023-03-11T07:05:47.123Z,284
2023-03-11T07:06:17.447Z,283
2023-03-11T07:06:49.303Z,285